sensor_id;sensor_type;location;lat;lon;timestamp;P1;durP1;ratioP1;P2;durP2;ratioP2
30185;SDS011;31152;49.190;8.122;2022-11-13T00:03:39;24.52;;;13.13;;
30185;SDS011;31152;49.190;8.122;2022-11-13T00:06:06;26.30;;;13.65;;
30185;SDS011;31152;49.190;8.122;2022-11-13T00:08:35;28.70;;;13.80;;
30185;SDS011;31152;49.190;8.122;2022-11-13T00:11:06;29.67;;;15.05;;
30185;SDS011;31152;49.190;8.122;2022-11-13T00:13:35;33.60;;;15.52;;
30185;SDS011;31152;49.190;8.122;2022-11-13T00:16:02;28.60;;;14.80;;
30185;SDS011;31152;49.190;8.122;2022-11-13T00:18:35;31.67;;;16.02;;
30185;SDS011;31152;49.190;8.122;2022-11-13T00:21:15;32.45;;;15.88;;
30185;SDS011;31152;49.190;8.122;2022-11-13T00:23:44;35.28;;;16.50;;
30185;SDS011;31152;49.190;8.122;2022-11-13T00:26:18;32.65;;;16.00;;
30185;SDS011;31152;49.190;8.122;2022-11-13T00:28:54;37.95;;;17.88;;
30185;SDS011;31152;49.190;8.122;2022-11-13T00:31:25;37.92;;;17.60;;
30185;SDS011;31152;49.190;8.122;2022-11-13T00:33:53;35.50;;;17.08;;
30185;SDS011;31152;49.190;8.122;2022-11-13T00:36:39;38.20;;;17.55;;
30185;SDS011;31152;49.190;8.122;2022-11-13T00:39:06;42.28;;;17.67;;
30185;SDS011;31152;49.190;8.122;2022-11-13T00:41:33;42.45;;;18.00;;
30185;SDS011;31152;49.190;8.122;2022-11-13T00:44:00;42.47;;;19.15;;
30185;SDS011;31152;49.190;8.122;2022-11-13T00:46:29;41.47;;;17.48;;
30185;SDS011;31152;49.190;8.122;2022-11-13T00:48:56;46.70;;;18.40;;
30185;SDS011;31152;49.190;8.122;2022-11-13T00:51:22;47.15;;;18.80;;
30185;SDS011;31152;49.190;8.122;2022-11-13T00:53:51;44.97;;;19.48;;
30185;SDS011;31152;49.190;8.122;2022-11-13T00:56:18;44.00;;;19.70;;
30185;SDS011;31152;49.190;8.122;2022-11-13T00:58:45;42.67;;;18.15;;
30185;SDS011;31152;49.190;8.122;2022-11-13T01:01:15;45.40;;;18.65;;
30185;SDS011;31152;49.190;8.122;2022-11-13T01:03:43;40.47;;;19.60;;
30185;SDS011;31152;49.190;8.122;2022-11-13T01:06:18;41.35;;;18.45;;
30185;SDS011;31152;49.190;8.122;2022-11-13T01:08:49;45.10;;;18.50;;
30185;SDS011;31152;49.190;8.122;2022-11-13T01:11:22;37.90;;;17.70;;
30185;SDS011;31152;49.190;8.122;2022-11-13T01:13:50;44.45;;;18.58;;
30185;SDS011;31152;49.190;8.122;2022-11-13T01:16:20;44.90;;;19.48;;
30185;SDS011;31152;49.190;8.122;2022-11-13T01:18:49;41.72;;;18.88;;
30185;SDS011;31152;49.190;8.122;2022-11-13T01:21:20;43.53;;;18.77;;
30185;SDS011;31152;49.190;8.122;2022-11-13T01:23:51;40.63;;;18.00;;
30185;SDS011;31152;49.190;8.122;2022-11-13T01:26:20;36.15;;;17.05;;
30185;SDS011;31152;49.190;8.122;2022-11-13T01:28:55;38.95;;;17.25;;
30185;SDS011;31152;49.190;8.122;2022-11-13T01:31:23;40.25;;;18.70;;
30185;SDS011;31152;49.190;8.122;2022-11-13T01:33:52;39.13;;;18.05;;
30185;SDS011;31152;49.190;8.122;2022-11-13T01:36:20;45.30;;;19.30;;
30185;SDS011;31152;49.190;8.122;2022-11-13T01:38:49;39.78;;;17.98;;
30185;SDS011;31152;49.190;8.122;2022-11-13T01:41:21;43.42;;;19.17;;
30185;SDS011;31152;49.190;8.122;2022-11-13T01:43:54;40.70;;;18.58;;
30185;SDS011;31152;49.190;8.122;2022-11-13T01:46:31;41.30;;;19.13;;
30185;SDS011;31152;49.190;8.122;2022-11-13T01:54:30;40.17;;;18.05;;
30185;SDS011;31152;49.190;8.122;2022-11-13T01:57:02;41.30;;;19.10;;
30185;SDS011;31152;49.190;8.122;2022-11-13T01:59:33;42.22;;;18.67;;
30185;SDS011;31152;49.190;8.122;2022-11-13T02:02:05;41.53;;;18.42;;
30185;SDS011;31152;49.190;8.122;2022-11-13T02:04:32;45.50;;;18.75;;
30185;SDS011;31152;49.190;8.122;2022-11-13T02:07:00;40.10;;;19.08;;
30185;SDS011;31152;49.190;8.122;2022-11-13T02:09:33;42.47;;;19.35;;
30185;SDS011;31152;49.190;8.122;2022-11-13T02:12:02;38.22;;;17.77;;
30185;SDS011;31152;49.190;8.122;2022-11-13T02:14:37;40.45;;;18.40;;
30185;SDS011;31152;49.190;8.122;2022-11-13T02:17:13;38.30;;;17.75;;
30185;SDS011;31152;49.190;8.122;2022-11-13T02:19:54;38.53;;;17.50;;
30185;SDS011;31152;49.190;8.122;2022-11-13T02:24:56;40.38;;;18.00;;
30185;SDS011;31152;49.190;8.122;2022-11-13T02:27:35;38.95;;;18.33;;
30185;SDS011;31152;49.190;8.122;2022-11-13T02:32:45;41.35;;;18.17;;
30185;SDS011;31152;49.190;8.122;2022-11-13T02:35:35;40.85;;;17.90;;
30185;SDS011;31152;49.190;8.122;2022-11-13T02:38:05;38.75;;;18.00;;
30185;SDS011;31152;49.190;8.122;2022-11-13T02:40:32;40.42;;;18.08;;
30185;SDS011;31152;49.190;8.122;2022-11-13T02:42:59;42.40;;;19.33;;
30185;SDS011;31152;49.190;8.122;2022-11-13T02:45:26;43.13;;;18.92;;
30185;SDS011;31152;49.190;8.122;2022-11-13T02:47:55;41.35;;;18.27;;
30185;SDS011;31152;49.190;8.122;2022-11-13T02:50:26;39.63;;;18.17;;
30185;SDS011;31152;49.190;8.122;2022-11-13T02:52:53;40.30;;;19.00;;
30185;SDS011;31152;49.190;8.122;2022-11-13T02:55:20;42.15;;;18.15;;
30185;SDS011;31152;49.190;8.122;2022-11-13T02:57:47;47.88;;;19.05;;
30185;SDS011;31152;49.190;8.122;2022-11-13T03:00:13;36.78;;;18.00;;
30185;SDS011;31152;49.190;8.122;2022-11-13T03:02:40;37.03;;;18.27;;
30185;SDS011;31152;49.190;8.122;2022-11-13T03:05:07;41.22;;;17.95;;
30185;SDS011;31152;49.190;8.122;2022-11-13T03:07:38;36.20;;;17.58;;
30185;SDS011;31152;49.190;8.122;2022-11-13T03:10:05;39.67;;;19.70;;
30185;SDS011;31152;49.190;8.122;2022-11-13T03:12:33;40.50;;;18.58;;
30185;SDS011;31152;49.190;8.122;2022-11-13T03:15:02;37.30;;;17.65;;
30185;SDS011;31152;49.190;8.122;2022-11-13T03:17:29;37.33;;;18.50;;
30185;SDS011;31152;49.190;8.122;2022-11-13T03:19:56;40.35;;;18.73;;
30185;SDS011;31152;49.190;8.122;2022-11-13T03:22:23;34.60;;;16.98;;
30185;SDS011;31152;49.190;8.122;2022-11-13T03:24:50;32.22;;;16.92;;
30185;SDS011;31152;49.190;8.122;2022-11-13T03:27:17;34.95;;;17.67;;
30185;SDS011;31152;49.190;8.122;2022-11-13T03:29:44;32.03;;;16.60;;
30185;SDS011;31152;49.190;8.122;2022-11-13T03:32:10;29.42;;;15.82;;
30185;SDS011;31152;49.190;8.122;2022-11-13T03:34:39;26.52;;;14.30;;
30185;SDS011;31152;49.190;8.122;2022-11-13T03:37:06;23.70;;;13.85;;
30185;SDS011;31152;49.190;8.122;2022-11-13T03:39:35;20.95;;;11.93;;
30185;SDS011;31152;49.190;8.122;2022-11-13T03:42:02;27.50;;;11.57;;
30185;SDS011;31152;49.190;8.122;2022-11-13T03:44:28;22.80;;;12.20;;
30185;SDS011;31152;49.190;8.122;2022-11-13T03:46:55;22.70;;;11.95;;
30185;SDS011;31152;49.190;8.122;2022-11-13T03:49:22;23.55;;;12.65;;
30185;SDS011;31152;49.190;8.122;2022-11-13T03:51:51;27.13;;;11.88;;
30185;SDS011;31152;49.190;8.122;2022-11-13T03:54:20;39.92;;;13.18;;
30185;SDS011;31152;49.190;8.122;2022-11-13T03:56:48;23.17;;;12.15;;
30185;SDS011;31152;49.190;8.122;2022-11-13T03:59:15;39.88;;;13.80;;
30185;SDS011;31152;49.190;8.122;2022-11-13T04:01:42;32.17;;;12.50;;
30185;SDS011;31152;49.190;8.122;2022-11-13T04:04:08;28.83;;;12.70;;
30185;SDS011;31152;49.190;8.122;2022-11-13T04:06:35;27.73;;;12.25;;
30185;SDS011;31152;49.190;8.122;2022-11-13T04:09:02;46.83;;;13.15;;
30185;SDS011;31152;49.190;8.122;2022-11-13T04:11:29;71.13;;;13.20;;
30185;SDS011;31152;49.190;8.122;2022-11-13T04:13:55;62.95;;;12.90;;
30185;SDS011;31152;49.190;8.122;2022-11-13T04:16:22;27.30;;;12.73;;
30185;SDS011;31152;49.190;8.122;2022-11-13T04:18:49;37.70;;;12.65;;
30185;SDS011;31152;49.190;8.122;2022-11-13T04:21:15;49.90;;;11.70;;
30185;SDS011;31152;49.190;8.122;2022-11-13T04:23:42;42.28;;;11.45;;
30185;SDS011;31152;49.190;8.122;2022-11-13T04:26:08;37.05;;;12.60;;
30185;SDS011;31152;49.190;8.122;2022-11-13T04:28:38;46.28;;;12.15;;
30185;SDS011;31152;49.190;8.122;2022-11-13T04:31:07;25.55;;;12.73;;
30185;SDS011;31152;49.190;8.122;2022-11-13T04:33:33;31.67;;;12.05;;
30185;SDS011;31152;49.190;8.122;2022-11-13T04:36:02;31.77;;;13.35;;
30185;SDS011;31152;49.190;8.122;2022-11-13T04:38:29;36.58;;;13.77;;
30185;SDS011;31152;49.190;8.122;2022-11-13T04:40:56;34.22;;;13.95;;
30185;SDS011;31152;49.190;8.122;2022-11-13T04:43:42;38.50;;;12.80;;
30185;SDS011;31152;49.190;8.122;2022-11-13T04:46:11;30.65;;;12.38;;
30185;SDS011;31152;49.190;8.122;2022-11-13T04:48:37;29.52;;;12.70;;
30185;SDS011;31152;49.190;8.122;2022-11-13T04:51:06;25.10;;;12.50;;
30185;SDS011;31152;49.190;8.122;2022-11-13T04:53:33;28.67;;;13.02;;
30185;SDS011;31152;49.190;8.122;2022-11-13T04:56:00;30.98;;;12.05;;
30185;SDS011;31152;49.190;8.122;2022-11-13T04:58:26;23.70;;;12.15;;
30185;SDS011;31152;49.190;8.122;2022-11-13T05:00:54;35.65;;;11.85;;
30185;SDS011;31152;49.190;8.122;2022-11-13T05:03:23;32.78;;;12.45;;
30185;SDS011;31152;49.190;8.122;2022-11-13T05:05:50;33.38;;;11.98;;
30185;SDS011;31152;49.190;8.122;2022-11-13T05:08:19;37.45;;;12.13;;
30185;SDS011;31152;49.190;8.122;2022-11-13T05:10:45;33.67;;;12.38;;
30185;SDS011;31152;49.190;8.122;2022-11-13T05:13:14;42.03;;;11.63;;
30185;SDS011;31152;49.190;8.122;2022-11-13T05:15:41;27.05;;;11.73;;
30185;SDS011;31152;49.190;8.122;2022-11-13T05:18:07;26.90;;;11.77;;
30185;SDS011;31152;49.190;8.122;2022-11-13T05:20:34;33.63;;;11.48;;
30185;SDS011;31152;49.190;8.122;2022-11-13T05:23:03;32.63;;;11.88;;
30185;SDS011;31152;49.190;8.122;2022-11-13T05:25:29;24.15;;;11.05;;
30185;SDS011;31152;49.190;8.122;2022-11-13T05:27:56;39.20;;;11.75;;
30185;SDS011;31152;49.190;8.122;2022-11-13T05:30:23;31.30;;;12.23;;
30185;SDS011;31152;49.190;8.122;2022-11-13T05:32:54;34.25;;;12.27;;
30185;SDS011;31152;49.190;8.122;2022-11-13T05:35:21;30.13;;;12.80;;
30185;SDS011;31152;49.190;8.122;2022-11-13T05:37:48;78.72;;;13.57;;
30185;SDS011;31152;49.190;8.122;2022-11-13T05:40:14;63.28;;;12.98;;
30185;SDS011;31152;49.190;8.122;2022-11-13T05:42:43;45.22;;;12.68;;
30185;SDS011;31152;49.190;8.122;2022-11-13T05:45:10;26.08;;;11.95;;
30185;SDS011;31152;49.190;8.122;2022-11-13T05:47:39;28.50;;;12.40;;
30185;SDS011;31152;49.190;8.122;2022-11-13T05:50:06;41.50;;;11.15;;
30185;SDS011;31152;49.190;8.122;2022-11-13T05:52:37;33.42;;;12.80;;
30185;SDS011;31152;49.190;8.122;2022-11-13T05:55:04;34.00;;;11.73;;
30185;SDS011;31152;49.190;8.122;2022-11-13T05:57:31;21.30;;;10.85;;
30185;SDS011;31152;49.190;8.122;2022-11-13T05:59:58;24.92;;;11.25;;
30185;SDS011;31152;49.190;8.122;2022-11-13T06:02:25;31.02;;;11.38;;
30185;SDS011;31152;49.190;8.122;2022-11-13T06:04:51;26.15;;;11.05;;
30185;SDS011;31152;49.190;8.122;2022-11-13T06:07:21;23.98;;;10.93;;
30185;SDS011;31152;49.190;8.122;2022-11-13T06:09:48;33.30;;;11.48;;
30185;SDS011;31152;49.190;8.122;2022-11-13T06:12:17;56.13;;;12.57;;
30185;SDS011;31152;49.190;8.122;2022-11-13T06:14:44;20.05;;;11.25;;
30185;SDS011;31152;49.190;8.122;2022-11-13T06:17:10;29.10;;;10.85;;
30185;SDS011;31152;49.190;8.122;2022-11-13T06:19:37;36.05;;;12.35;;
30185;SDS011;31152;49.190;8.122;2022-11-13T06:22:04;47.25;;;13.90;;
30185;SDS011;31152;49.190;8.122;2022-11-13T06:24:32;22.70;;;10.73;;
30185;SDS011;31152;49.190;8.122;2022-11-13T06:26:59;30.08;;;11.40;;
30185;SDS011;31152;49.190;8.122;2022-11-13T06:29:26;23.02;;;11.32;;
30185;SDS011;31152;49.190;8.122;2022-11-13T06:31:52;31.33;;;12.82;;
30185;SDS011;31152;49.190;8.122;2022-11-13T06:34:22;22.00;;;10.77;;
30185;SDS011;31152;49.190;8.122;2022-11-13T06:36:48;33.42;;;10.57;;
30185;SDS011;31152;49.190;8.122;2022-11-13T06:39:15;20.58;;;10.52;;
30185;SDS011;31152;49.190;8.122;2022-11-13T06:41:42;27.15;;;11.10;;
30185;SDS011;31152;49.190;8.122;2022-11-13T06:44:11;37.58;;;10.55;;
30185;SDS011;31152;49.190;8.122;2022-11-13T06:46:37;20.65;;;10.20;;
30185;SDS011;31152;49.190;8.122;2022-11-13T06:49:04;32.35;;;10.80;;
30185;SDS011;31152;49.190;8.122;2022-11-13T06:51:31;26.50;;;10.73;;
30185;SDS011;31152;49.190;8.122;2022-11-13T06:53:57;23.27;;;10.20;;
30185;SDS011;31152;49.190;8.122;2022-11-13T06:56:24;32.30;;;10.32;;
30185;SDS011;31152;49.190;8.122;2022-11-13T06:58:56;30.77;;;11.07;;
30185;SDS011;31152;49.190;8.122;2022-11-13T07:01:23;27.42;;;11.05;;
30185;SDS011;31152;49.190;8.122;2022-11-13T07:03:54;19.95;;;11.20;;
30185;SDS011;31152;49.190;8.122;2022-11-13T07:06:22;26.42;;;10.60;;
30185;SDS011;31152;49.190;8.122;2022-11-13T07:08:49;48.33;;;10.63;;
30185;SDS011;31152;49.190;8.122;2022-11-13T07:11:19;31.55;;;12.15;;
30185;SDS011;31152;49.190;8.122;2022-11-13T07:13:49;27.77;;;10.93;;
30185;SDS011;31152;49.190;8.122;2022-11-13T07:16:21;22.15;;;11.57;;
30185;SDS011;31152;49.190;8.122;2022-11-13T07:18:48;24.85;;;11.75;;
30185;SDS011;31152;49.190;8.122;2022-11-13T07:21:16;17.25;;;10.77;;
30185;SDS011;31152;49.190;8.122;2022-11-13T07:23:43;23.23;;;11.25;;
30185;SDS011;31152;49.190;8.122;2022-11-13T07:26:12;22.23;;;10.50;;
30185;SDS011;31152;49.190;8.122;2022-11-13T07:28:42;34.28;;;11.40;;
30185;SDS011;31152;49.190;8.122;2022-11-13T07:31:12;25.25;;;12.35;;
30185;SDS011;31152;49.190;8.122;2022-11-13T07:33:39;40.25;;;12.02;;
30185;SDS011;31152;49.190;8.122;2022-11-13T07:36:09;34.63;;;11.57;;
30185;SDS011;31152;49.190;8.122;2022-11-13T07:38:38;28.73;;;11.63;;
30185;SDS011;31152;49.190;8.122;2022-11-13T07:41:05;18.27;;;10.95;;
30185;SDS011;31152;49.190;8.122;2022-11-13T07:43:32;21.58;;;11.05;;
30185;SDS011;31152;49.190;8.122;2022-11-13T07:46:00;22.83;;;11.98;;
30185;SDS011;31152;49.190;8.122;2022-11-13T07:48:27;23.73;;;11.82;;
30185;SDS011;31152;49.190;8.122;2022-11-13T07:51:03;21.13;;;11.98;;
30185;SDS011;31152;49.190;8.122;2022-11-13T07:53:29;28.75;;;12.07;;
30185;SDS011;31152;49.190;8.122;2022-11-13T07:55:58;22.92;;;12.52;;
30185;SDS011;31152;49.190;8.122;2022-11-13T07:58:26;24.67;;;11.52;;
30185;SDS011;31152;49.190;8.122;2022-11-13T08:00:53;23.02;;;12.45;;
30185;SDS011;31152;49.190;8.122;2022-11-13T08:03:22;22.38;;;11.63;;
30185;SDS011;31152;49.190;8.122;2022-11-13T08:05:49;20.77;;;12.40;;
30185;SDS011;31152;49.190;8.122;2022-11-13T08:08:16;24.80;;;12.25;;
30185;SDS011;31152;49.190;8.122;2022-11-13T08:10:42;21.05;;;12.93;;
30185;SDS011;31152;49.190;8.122;2022-11-13T08:13:09;23.48;;;12.40;;
30185;SDS011;31152;49.190;8.122;2022-11-13T08:15:36;21.50;;;12.82;;
30185;SDS011;31152;49.190;8.122;2022-11-13T08:18:03;24.55;;;12.85;;
30185;SDS011;31152;49.190;8.122;2022-11-13T08:20:31;22.60;;;12.90;;
30185;SDS011;31152;49.190;8.122;2022-11-13T08:22:58;23.73;;;13.05;;
30185;SDS011;31152;49.190;8.122;2022-11-13T08:25:28;27.40;;;14.75;;
30185;SDS011;31152;49.190;8.122;2022-11-13T08:27:55;23.63;;;13.77;;
30185;SDS011;31152;49.190;8.122;2022-11-13T08:30:23;22.67;;;13.93;;
30185;SDS011;31152;49.190;8.122;2022-11-13T08:32:55;21.65;;;13.07;;
30185;SDS011;31152;49.190;8.122;2022-11-13T08:35:22;27.25;;;13.48;;
30185;SDS011;31152;49.190;8.122;2022-11-13T08:37:54;26.73;;;13.77;;
30185;SDS011;31152;49.190;8.122;2022-11-13T08:40:27;21.75;;;13.35;;
30185;SDS011;31152;49.190;8.122;2022-11-13T08:43:03;23.60;;;13.35;;
30185;SDS011;31152;49.190;8.122;2022-11-13T08:45:32;24.92;;;14.50;;
30185;SDS011;31152;49.190;8.122;2022-11-13T08:48:02;25.58;;;14.43;;
30185;SDS011;31152;49.190;8.122;2022-11-13T08:50:30;23.60;;;13.85;;
30185;SDS011;31152;49.190;8.122;2022-11-13T08:53:01;22.25;;;13.95;;
30185;SDS011;31152;49.190;8.122;2022-11-13T08:55:28;25.20;;;14.15;;
30185;SDS011;31152;49.190;8.122;2022-11-13T08:57:57;24.98;;;15.43;;
30185;SDS011;31152;49.190;8.122;2022-11-13T09:00:25;25.00;;;14.75;;
30185;SDS011;31152;49.190;8.122;2022-11-13T09:02:56;24.13;;;14.68;;
30185;SDS011;31152;49.190;8.122;2022-11-13T09:05:24;28.20;;;15.80;;
30185;SDS011;31152;49.190;8.122;2022-11-13T09:07:59;27.23;;;15.90;;
30185;SDS011;31152;49.190;8.122;2022-11-13T09:10:26;27.98;;;16.02;;
30185;SDS011;31152;49.190;8.122;2022-11-13T09:12:56;32.42;;;17.38;;
30185;SDS011;31152;49.190;8.122;2022-11-13T09:15:29;27.67;;;16.42;;
30185;SDS011;31152;49.190;8.122;2022-11-13T09:18:00;30.15;;;17.02;;
30185;SDS011;31152;49.190;8.122;2022-11-13T09:20:28;24.35;;;14.45;;
30185;SDS011;31152;49.190;8.122;2022-11-13T09:23:00;29.08;;;16.67;;
30185;SDS011;31152;49.190;8.122;2022-11-13T09:25:29;24.00;;;15.25;;
30185;SDS011;31152;49.190;8.122;2022-11-13T09:28:02;27.30;;;15.82;;
30185;SDS011;31152;49.190;8.122;2022-11-13T09:30:30;26.30;;;15.60;;
30185;SDS011;31152;49.190;8.122;2022-11-13T09:32:58;28.65;;;17.27;;
30185;SDS011;31152;49.190;8.122;2022-11-13T09:35:26;26.88;;;16.60;;
30185;SDS011;31152;49.190;8.122;2022-11-13T09:40:51;25.13;;;15.00;;
30185;SDS011;31152;49.190;8.122;2022-11-13T09:45:58;22.92;;;14.35;;
30185;SDS011;31152;49.190;8.122;2022-11-13T09:51:09;24.50;;;15.00;;
30185;SDS011;31152;49.190;8.122;2022-11-13T09:54:06;21.02;;;13.20;;
30185;SDS011;31152;49.190;8.122;2022-11-13T09:56:38;25.40;;;14.95;;
30185;SDS011;31152;49.190;8.122;2022-11-13T10:04:18;23.60;;;13.98;;
30185;SDS011;31152;49.190;8.122;2022-11-13T10:12:16;21.13;;;13.93;;
30185;SDS011;31152;49.190;8.122;2022-11-13T10:14:47;21.67;;;13.35;;
30185;SDS011;31152;49.190;8.122;2022-11-13T10:20:46;17.45;;;11.95;;
30185;SDS011;31152;49.190;8.122;2022-11-13T10:23:19;16.63;;;12.60;;
30185;SDS011;31152;49.190;8.122;2022-11-13T10:25:51;15.57;;;11.65;;
30185;SDS011;31152;49.190;8.122;2022-11-13T10:28:24;13.98;;;11.43;;
30185;SDS011;31152;49.190;8.122;2022-11-13T10:31:14;14.60;;;11.90;;
30185;SDS011;31152;49.190;8.122;2022-11-13T10:33:41;16.98;;;12.25;;
30185;SDS011;31152;49.190;8.122;2022-11-13T10:36:13;15.85;;;10.65;;
30185;SDS011;31152;49.190;8.122;2022-11-13T10:38:57;15.20;;;11.82;;
30185;SDS011;31152;49.190;8.122;2022-11-13T10:41:29;13.68;;;11.07;;
30185;SDS011;31152;49.190;8.122;2022-11-13T10:44:06;13.30;;;11.80;;
30185;SDS011;31152;49.190;8.122;2022-11-13T10:46:46;15.57;;;12.23;;
30185;SDS011;31152;49.190;8.122;2022-11-13T10:49:20;13.07;;;11.05;;
30185;SDS011;31152;49.190;8.122;2022-11-13T10:51:53;13.07;;;11.70;;
30185;SDS011;31152;49.190;8.122;2022-11-13T10:54:23;12.98;;;11.65;;
30185;SDS011;31152;49.190;8.122;2022-11-13T10:56:58;12.52;;;11.23;;
30185;SDS011;31152;49.190;8.122;2022-11-13T10:59:36;13.40;;;11.82;;
30185;SDS011;31152;49.190;8.122;2022-11-13T11:02:23;14.23;;;11.20;;
30185;SDS011;31152;49.190;8.122;2022-11-13T11:05:04;11.73;;;10.48;;
30185;SDS011;31152;49.190;8.122;2022-11-13T11:07:41;12.30;;;11.00;;
30185;SDS011;31152;49.190;8.122;2022-11-13T11:13:07;14.05;;;11.02;;
30185;SDS011;31152;49.190;8.122;2022-11-13T11:16:10;11.25;;;9.95;;
30185;SDS011;31152;49.190;8.122;2022-11-13T11:21:17;11.07;;;9.95;;
30185;SDS011;31152;49.190;8.122;2022-11-13T11:23:58;13.80;;;9.65;;
30185;SDS011;31152;49.190;8.122;2022-11-13T11:32:05;11.30;;;10.20;;
30185;SDS011;31152;49.190;8.122;2022-11-13T11:34:49;10.98;;;9.95;;
30185;SDS011;31152;49.190;8.122;2022-11-13T11:37:54;11.00;;;9.95;;
30185;SDS011;31152;49.190;8.122;2022-11-13T11:40:41;11.00;;;9.90;;
30185;SDS011;31152;49.190;8.122;2022-11-13T11:43:12;11.77;;;10.68;;
30185;SDS011;31152;49.190;8.122;2022-11-13T11:45:59;11.40;;;10.25;;
30185;SDS011;31152;49.190;8.122;2022-11-13T11:48:30;11.60;;;10.27;;
30185;SDS011;31152;49.190;8.122;2022-11-13T11:57:04;10.52;;;8.85;;
30185;SDS011;31152;49.190;8.122;2022-11-13T11:59:55;9.60;;;8.70;;
30185;SDS011;31152;49.190;8.122;2022-11-13T12:02:40;10.27;;;8.57;;
30185;SDS011;31152;49.190;8.122;2022-11-13T12:05:15;9.65;;;8.65;;
30185;SDS011;31152;49.190;8.122;2022-11-13T12:07:58;9.38;;;8.43;;
30185;SDS011;31152;49.190;8.122;2022-11-13T12:10:45;8.55;;;7.75;;
30185;SDS011;31152;49.190;8.122;2022-11-13T12:13:21;8.45;;;7.65;;
30185;SDS011;31152;49.190;8.122;2022-11-13T12:19:39;8.98;;;8.05;;
30185;SDS011;31152;49.190;8.122;2022-11-13T12:22:19;8.40;;;7.60;;
30185;SDS011;31152;49.190;8.122;2022-11-13T12:25:27;8.23;;;7.25;;
30185;SDS011;31152;49.190;8.122;2022-11-13T12:30:58;8.88;;;8.05;;
30185;SDS011;31152;49.190;8.122;2022-11-13T12:36:28;9.55;;;8.18;;
30185;SDS011;31152;49.190;8.122;2022-11-13T12:39:02;8.70;;;7.85;;
30185;SDS011;31152;49.190;8.122;2022-11-13T12:41:52;7.55;;;6.72;;
30185;SDS011;31152;49.190;8.122;2022-11-13T12:44:26;8.82;;;7.85;;
30185;SDS011;31152;49.190;8.122;2022-11-13T12:46:55;8.65;;;7.38;;
30185;SDS011;31152;49.190;8.122;2022-11-13T12:51:55;10.93;;;7.70;;
30185;SDS011;31152;49.190;8.122;2022-11-13T12:54:23;8.32;;;7.55;;
30185;SDS011;31152;49.190;8.122;2022-11-13T12:56:51;8.50;;;7.60;;
30185;SDS011;31152;49.190;8.122;2022-11-13T13:02:02;8.60;;;7.68;;
30185;SDS011;31152;49.190;8.122;2022-11-13T13:10:31;8.80;;;7.95;;
30185;SDS011;31152;49.190;8.122;2022-11-13T13:15:54;12.40;;;11.20;;
30185;SDS011;31152;49.190;8.122;2022-11-13T13:18:33;9.75;;;7.10;;
30185;SDS011;31152;49.190;8.122;2022-11-13T13:21:05;10.60;;;7.73;;
30185;SDS011;31152;49.190;8.122;2022-11-13T13:23:37;8.30;;;7.50;;
30185;SDS011;31152;49.190;8.122;2022-11-13T13:29:07;8.27;;;7.50;;
30185;SDS011;31152;49.190;8.122;2022-11-13T13:31:57;8.23;;;7.22;;
30185;SDS011;31152;49.190;8.122;2022-11-13T13:40:36;10.90;;;7.15;;
30185;SDS011;31152;49.190;8.122;2022-11-13T13:43:31;8.48;;;7.57;;
30185;SDS011;31152;49.190;8.122;2022-11-13T13:48:46;7.82;;;7.03;;
30185;SDS011;31152;49.190;8.122;2022-11-13T13:51:25;7.95;;;7.25;;
30185;SDS011;31152;49.190;8.122;2022-11-13T13:53:59;10.32;;;6.95;;
30185;SDS011;31152;49.190;8.122;2022-11-13T13:56:30;9.27;;;7.30;;
30185;SDS011;31152;49.190;8.122;2022-11-13T13:58:58;9.57;;;7.70;;
30185;SDS011;31152;49.190;8.122;2022-11-13T14:01:30;9.25;;;7.07;;
30185;SDS011;31152;49.190;8.122;2022-11-13T14:04:02;8.93;;;7.88;;
30185;SDS011;31152;49.190;8.122;2022-11-13T14:06:50;8.18;;;6.85;;
30185;SDS011;31152;49.190;8.122;2022-11-13T14:09:25;8.23;;;7.43;;
30185;SDS011;31152;49.190;8.122;2022-11-13T14:12:01;9.57;;;7.93;;
30185;SDS011;31152;49.190;8.122;2022-11-13T14:14:37;9.60;;;7.18;;
30185;SDS011;31152;49.190;8.122;2022-11-13T14:17:07;13.77;;;10.15;;
30185;SDS011;31152;49.190;8.122;2022-11-13T14:19:38;9.85;;;8.10;;
30185;SDS011;31152;49.190;8.122;2022-11-13T14:22:05;10.05;;;7.25;;
30185;SDS011;31152;49.190;8.122;2022-11-13T14:24:48;9.25;;;8.20;;
30185;SDS011;31152;49.190;8.122;2022-11-13T14:27:20;8.38;;;7.47;;
30185;SDS011;31152;49.190;8.122;2022-11-13T14:29:53;10.45;;;7.93;;
30185;SDS011;31152;49.190;8.122;2022-11-13T14:32:26;10.95;;;8.45;;
30185;SDS011;31152;49.190;8.122;2022-11-13T14:34:59;12.43;;;8.93;;
30185;SDS011;31152;49.190;8.122;2022-11-13T14:40:04;12.07;;;8.80;;
30185;SDS011;31152;49.190;8.122;2022-11-13T14:42:45;11.65;;;8.65;;
30185;SDS011;31152;49.190;8.122;2022-11-13T14:47:53;17.05;;;9.55;;
30185;SDS011;31152;49.190;8.122;2022-11-13T14:50:50;12.77;;;9.75;;
30185;SDS011;31152;49.190;8.122;2022-11-13T14:53:34;12.07;;;9.23;;
30185;SDS011;31152;49.190;8.122;2022-11-13T14:56:09;11.20;;;8.65;;
30185;SDS011;31152;49.190;8.122;2022-11-13T14:58:41;11.63;;;8.63;;
30185;SDS011;31152;49.190;8.122;2022-11-13T15:01:18;10.02;;;8.80;;
30185;SDS011;31152;49.190;8.122;2022-11-13T15:03:47;10.80;;;9.00;;
30185;SDS011;31152;49.190;8.122;2022-11-13T15:06:22;11.82;;;9.10;;
30185;SDS011;31152;49.190;8.122;2022-11-13T15:08:53;12.15;;;8.90;;
30185;SDS011;31152;49.190;8.122;2022-11-13T15:11:25;14.10;;;9.10;;
30185;SDS011;31152;49.190;8.122;2022-11-13T15:13:55;13.55;;;9.13;;
30185;SDS011;31152;49.190;8.122;2022-11-13T15:16:29;12.00;;;9.25;;
30185;SDS011;31152;49.190;8.122;2022-11-13T15:21:28;13.38;;;9.75;;
30185;SDS011;31152;49.190;8.122;2022-11-13T15:23:55;14.43;;;9.38;;
30185;SDS011;31152;49.190;8.122;2022-11-13T15:26:23;13.43;;;9.35;;
30185;SDS011;31152;49.190;8.122;2022-11-13T15:28:52;12.88;;;9.10;;
30185;SDS011;31152;49.190;8.122;2022-11-13T15:31:23;18.02;;;10.65;;
30185;SDS011;31152;49.190;8.122;2022-11-13T15:33:58;16.48;;;11.15;;
30185;SDS011;31152;49.190;8.122;2022-11-13T15:36:27;21.35;;;10.63;;
30185;SDS011;31152;49.190;8.122;2022-11-13T15:38:54;18.63;;;10.63;;
30185;SDS011;31152;49.190;8.122;2022-11-13T15:41:21;22.85;;;11.32;;
30185;SDS011;31152;49.190;8.122;2022-11-13T15:43:53;15.43;;;10.35;;
30185;SDS011;31152;49.190;8.122;2022-11-13T15:46:22;14.73;;;10.20;;
30185;SDS011;31152;49.190;8.122;2022-11-13T15:48:49;17.20;;;10.57;;
30185;SDS011;31152;49.190;8.122;2022-11-13T15:51:19;23.15;;;11.35;;
30185;SDS011;31152;49.190;8.122;2022-11-13T15:53:54;16.73;;;10.05;;
30185;SDS011;31152;49.190;8.122;2022-11-13T15:56:24;17.10;;;9.85;;
30185;SDS011;31152;49.190;8.122;2022-11-13T15:58:52;20.38;;;10.93;;
30185;SDS011;31152;49.190;8.122;2022-11-13T16:01:19;17.35;;;10.20;;
30185;SDS011;31152;49.190;8.122;2022-11-13T16:03:46;16.30;;;9.85;;
30185;SDS011;31152;49.190;8.122;2022-11-13T16:06:20;22.80;;;10.57;;
30185;SDS011;31152;49.190;8.122;2022-11-13T16:08:48;17.42;;;9.65;;
30185;SDS011;31152;49.190;8.122;2022-11-13T16:11:16;17.55;;;10.77;;
30185;SDS011;31152;49.190;8.122;2022-11-13T16:13:43;15.57;;;10.05;;
30185;SDS011;31152;49.190;8.122;2022-11-13T16:16:25;15.93;;;10.02;;
30185;SDS011;31152;49.190;8.122;2022-11-13T16:18:56;19.00;;;11.30;;
30185;SDS011;31152;49.190;8.122;2022-11-13T16:21:26;18.92;;;11.43;;
30185;SDS011;31152;49.190;8.122;2022-11-13T16:23:53;24.85;;;12.18;;